Time;durP1;ratioP1;P1;durP2;ratioP2;P2;SDS_P1;SDS_P2;PMS_P1;PMS_P2;Temp;Humidity;BMP_temperature;BMP_pressure;BME280_temperature;BME280_humidity;BME280_pressure;Samples;Min_cycle;Max_cycle;Signal;HPM_P1;HPM_P2
2023/01/12 00:02:21;;;;;;;;;;;;;;;12.49;90.49;100060.66;7364412;19;20019;-63
2023/01/12 00:04:48;;;;;;;;;;;;;;;12.52;90.68;100057.66;7378116;19;19937;-63
2023/01/12 00:07:16;;;;;;;;;;;;;;;12.51;90.66;100049.91;7375033;19;19914;-65
2023/01/12 00:09:44;;;;;;;;;;;;;;;12.51;90.90;100042.81;7378603;19;20319;-63
2023/01/12 00:12:11;;;;;;;;;;;;;;;12.52;90.77;100027.81;7376615;19;19933;-63
2023/01/12 00:14:38;;;;;;;;;;;;;;;12.55;91.61;100014.22;7377558;19;19919;-63
2023/01/12 00:17:05;;;;;;;;;;;;;;;12.54;91.64;100004.69;7368381;19;20459;-64
2023/01/12 00:19:32;;;;;;;;;;;;;;;12.52;91.86;99993.50;7376417;19;19917;-65
2023/01/12 00:22:07;;;;;;;;;;;;;;;12.51;91.78;99994.50;7371472;19;19921;-64
2023/01/12 00:24:36;;;;;;;;;;;;;;;12.48;91.90;99958.75;7376880;19;19914;-64
2023/01/12 00:27:05;;;;;;;;;;;;;;;12.53;92.62;99963.47;7377676;19;20356;-64
2023/01/12 00:29:32;;;;;;;;;;;;;;;12.58;92.88;99967.19;7377981;19;19922;-63
2023/01/12 00:32:00;;;;;;;;;;;;;;;12.57;92.21;99967.38;7376779;19;19911;-63
2023/01/12 00:34:27;;;;;;;;;;;;;;;12.56;92.52;99953.34;7366248;19;19919;-63
2023/01/12 00:36:55;;;;;;;;;;;;;;;12.56;92.45;99955.16;7373322;19;20718;-63
2023/01/12 00:39:22;;;;;;;;;;;;;;;12.59;93.03;99955.63;7375706;19;20259;-63
2023/01/12 00:49:46;;;;;;;;;;;;;;;12.65;94.60;99941.66;7338504;19;19930;-57
2023/01/12 00:52:15;;;;;;;;;;;;;;;12.67;95.43;99934.38;7086764;19;20375;-59
2023/01/12 00:54:56;;;;;;;;;;;;;;;12.67;95.84;99930.94;7350838;19;20037;-61
2023/01/12 00:57:23;;;;;;;;;;;;;;;12.61;96.31;99932.50;7347441;19;20437;-58
2023/01/12 00:59:53;;;;;;;;;;;;;;;12.58;96.59;99937.34;7352867;19;19968;-57
2023/01/12 01:02:21;;;;;;;;;;;;;;;12.56;96.95;99934.88;7350589;19;20366;-59
2023/01/12 01:04:48;;;;;;;;;;;;;;;12.58;97.77;99932.88;7339277;19;19975;-58
2023/01/12 01:07:16;;;;;;;;;;;;;;;12.58;98.03;99922.34;7306334;19;20012;-60
2023/01/12 01:09:43;;;;;;;;;;;;;;;12.58;97.93;99916.22;7354392;19;19926;-57
2023/01/12 01:12:10;;;;;;;;;;;;;;;12.56;97.86;99913.78;7355425;19;19941;-54
2023/01/12 01:14:36;;;;;;;;;;;;;;;12.54;98.01;99912.34;7354727;19;20536;-58
2023/01/12 01:17:03;;;;;;;;;;;;;;;12.54;98.12;99912.34;7355669;19;21115;-60
2023/01/12 01:19:30;;;;;;;;;;;;;;;12.54;98.59;99910.53;7356571;19;19956;-61
2023/01/12 01:21:57;;;;;;;;;;;;;;;12.54;98.20;99897.34;7349364;19;19943;-60
2023/01/12 01:24:24;;;;;;;;;;;;;;;12.55;98.16;99896.31;7364970;19;19922;-59
2023/01/12 01:26:50;;;;;;;;;;;;;;;12.59;98.72;99896.75;7364477;19;19926;-60
2023/01/12 01:29:17;;;;;;;;;;;;;;;12.59;98.35;99902.03;7362537;19;19944;-60
2023/01/12 01:31:46;;;;;;;;;;;;;;;12.60;98.07;99891.28;7364633;19;19938;-59
2023/01/12 01:34:13;;;;;;;;;;;;;;;12.61;97.94;99894.72;7365090;19;19960;-60
2023/01/12 01:36:40;;;;;;;;;;;;;;;12.65;98.20;99874.88;7364447;19;19927;-56
2023/01/12 01:39:07;;;;;;;;;;;;;;;12.67;98.33;99878.16;7361428;19;21522;-58
2023/01/12 01:41:33;;;;;;;;;;;;;;;12.66;98.02;99893.16;7361015;19;20106;-59
2023/01/12 01:44:03;;;;;;;;;;;;;;;12.68;98.37;99885.88;7364609;19;20474;-60
2023/01/12 01:46:30;;;;;;;;;;;;;;;12.69;97.95;99881.41;7363441;19;20506;-59
2023/01/12 01:49:03;;;;;;;;;;;;;;;12.69;98.09;99873.50;7364171;19;19930;-61
2023/01/12 01:51:29;;;;;;;;;;;;;;;12.68;97.77;99874.50;7363551;19;19919;-59
2023/01/12 01:53:56;;;;;;;;;;;;;;;12.68;98.15;99870.03;7359997;19;19918;-57
2023/01/12 01:56:25;;;;;;;;;;;;;;;12.67;97.89;99863.13;7364566;19;21664;-60
2023/01/12 01:58:56;;;;;;;;;;;;;;;12.69;98.09;99865.59;7361480;19;20517;-57
2023/01/12 02:01:23;;;;;;;;;;;;;;;12.71;97.84;99861.75;7363995;19;19934;-59
2023/01/12 02:03:51;;;;;;;;;;;;;;;12.74;97.83;99866.66;7358505;19;20276;-58
2023/01/12 02:06:18;;;;;;;;;;;;;;;12.76;98.13;99847.97;7362494;19;19931;-58
2023/01/12 02:08:50;;;;;;;;;;;;;;;12.75;98.03;99844.50;7358957;19;20267;-59
2023/01/12 02:16:31;;;;;;;;;;;;;;;12.76;97.80;99861.97;7364658;19;19919;-58
2023/01/12 02:19:07;;;;;;;;;;;;;;;12.77;98.34;99852.25;7361311;19;19983;-59
2023/01/12 02:21:47;;;;;;;;;;;;;;;12.77;97.65;99860.97;7360764;19;19930;-55
2023/01/12 02:24:23;;;;;;;;;;;;;;;12.81;97.95;99853.47;7363279;19;19931;-62
2023/01/12 02:26:51;;;;;;;;;;;;;;;12.81;97.80;99866.69;7361852;19;19923;-55
2023/01/12 02:29:18;;;;;;;;;;;;;;;12.80;97.77;99850.03;7359713;19;19919;-57
2023/01/12 02:31:55;;;;;;;;;;;;;;;12.83;97.84;99862.88;7364972;19;19960;-58
2023/01/12 02:34:24;;;;;;;;;;;;;;;12.86;98.08;99849.25;7360346;19;19918;-59
2023/01/12 02:36:54;;;;;;;;;;;;;;;12.87;97.98;99850.09;7361746;19;20027;-59
2023/01/12 02:39:26;;;;;;;;;;;;;;;12.86;98.43;99851.09;7362713;19;19922;-60
2023/01/12 02:44:40;;;;;;;;;;;;;;;12.86;98.47;99833.41;7359418;19;19934;-61
2023/01/12 02:47:11;;;;;;;;;;;;;;;12.88;98.46;99840.34;7362415;19;19955;-58
2023/01/12 02:49:43;;;;;;;;;;;;;;;12.89;98.84;99845.44;7363849;19;19918;-59
2023/01/12 02:52:14;;;;;;;;;;;;;;;12.92;99.02;99860.06;7361919;19;19927;-59
2023/01/12 02:54:44;;;;;;;;;;;;;;;12.91;99.23;99837.31;7361449;19;19926;-63
2023/01/12 02:57:10;;;;;;;;;;;;;;;12.92;99.05;99839.75;7363248;19;19930;-56
2023/01/12 02:59:39;;;;;;;;;;;;;;;12.91;98.86;99843.41;7359432;19;20420;-58
2023/01/12 03:02:08;;;;;;;;;;;;;;;12.92;99.13;99842.41;7360460;19;19915;-59
2023/01/12 03:04:35;;;;;;;;;;;;;;;12.96;99.27;99830.44;7362587;19;19923;-60
2023/01/12 03:07:02;;;;;;;;;;;;;;;12.96;99.04;99825.16;7350276;19;19918;-59
2023/01/12 03:09:29;;;;;;;;;;;;;;;12.99;98.81;99837.19;7358955;19;19919;-58
2023/01/12 03:12:00;;;;;;;;;;;;;;;12.98;98.37;99831.06;7362526;19;19927;-58
2023/01/12 03:14:28;;;;;;;;;;;;;;;12.98;98.38;99833.72;7359392;19;20319;-60
2023/01/12 03:16:55;;;;;;;;;;;;;;;13.02;97.70;99842.06;7359553;19;19926;-61
2023/01/12 03:19:26;;;;;;;;;;;;;;;13.06;97.96;99838.84;7359357;19;21132;-60
2023/01/12 03:21:55;;;;;;;;;;;;;;;13.07;97.51;99852.88;7355767;19;19918;-58
2023/01/12 03:24:26;;;;;;;;;;;;;;;13.11;97.84;99835.63;7361618;19;19923;-59
2023/01/12 03:26:58;;;;;;;;;;;;;;;13.11;97.43;99848.81;7358760;19;19914;-57
2023/01/12 03:29:28;;;;;;;;;;;;;;;13.10;97.10;99849.84;7358431;19;19951;-60
2023/01/12 03:31:55;;;;;;;;;;;;;;;13.13;97.22;99852.13;7361316;19;19915;-60
2023/01/12 03:34:22;;;;;;;;;;;;;;;13.14;97.35;99851.13;7361445;19;19923;-59
2023/01/12 03:36:50;;;;;;;;;;;;;;;13.13;97.46;99862.69;7361008;19;20949;-60
2023/01/12 03:39:20;;;;;;;;;;;;;;;13.14;97.54;99854.59;7359333;19;19922;-60
2023/01/12 03:41:54;;;;;;;;;;;;;;;13.15;98.05;99844.84;7359576;19;19923;-60
2023/01/12 03:44:27;;;;;;;;;;;;;;;13.12;97.79;99848.66;7361468;19;19931;-60
2023/01/12 03:46:58;;;;;;;;;;;;;;;13.11;97.91;99852.31;7360170;19;20863;-58
2023/01/12 03:49:30;;;;;;;;;;;;;;;13.12;97.90;99855.78;7358982;19;19927;-62
2023/01/12 03:51:59;;;;;;;;;;;;;;;13.10;98.12;99855.13;7358032;19;19937;-59
2023/01/12 03:54:27;;;;;;;;;;;;;;;13.11;98.17;99864.66;7359410;19;19921;-59
2023/01/12 03:56:55;;;;;;;;;;;;;;;13.12;98.24;99866.34;7358707;19;20398;-60
2023/01/12 03:59:22;;;;;;;;;;;;;;;13.12;98.29;99871.63;7356751;19;20519;-59
2023/01/12 04:01:50;;;;;;;;;;;;;;;13.14;98.53;99857.22;7358419;19;20688;-59
2023/01/12 04:04:17;;;;;;;;;;;;;;;13.17;98.62;99864.75;7357918;19;19927;-60
2023/01/12 04:06:44;;;;;;;;;;;;;;;13.17;98.04;99854.19;7354678;19;20408;-56
2023/01/12 04:09:10;;;;;;;;;;;;;;;13.17;97.99;99858.66;7357742;19;19918;-58
2023/01/12 04:14:14;;;;;;;;;;;;;;;13.17;98.02;99862.09;7357680;19;19922;-59
2023/01/12 04:16:40;;;;;;;;;;;;;;;13.18;98.24;99874.31;7361050;19;19927;-59
2023/01/12 04:19:07;;;;;;;;;;;;;;;13.19;98.26;99854.81;7360027;19;20636;-60
2023/01/12 04:24:10;;;;;;;;;;;;;;;13.19;97.71;99869.84;7356076;19;20687;-60
2023/01/12 04:26:37;;;;;;;;;;;;;;;13.20;98.03;99861.75;7360842;19;21308;-57
2023/01/12 04:29:04;;;;;;;;;;;;;;;13.21;98.42;99860.72;7358599;19;19929;-60
2023/01/12 04:31:31;;;;;;;;;;;;;;;13.22;98.54;99867.63;7359214;19;19934;-59
2023/01/12 04:33:58;;;;;;;;;;;;;;;13.20;98.39;99866.22;7359075;19;20392;-58
2023/01/12 04:36:25;;;;;;;;;;;;;;;13.19;98.18;99865.38;7357954;19;19919;-59
2023/01/12 04:38:51;;;;;;;;;;;;;;;13.20;98.10;99845.06;7355285;19;19930;-59
2023/01/12 04:41:18;;;;;;;;;;;;;;;13.20;98.32;99853.81;7358649;19;19941;-55
2023/01/12 04:43:45;;;;;;;;;;;;;;;13.22;98.76;99856.25;7356762;19;19926;-59
2023/01/12 04:46:12;;;;;;;;;;;;;;;13.20;98.67;99855.63;7358593;19;20160;-60
2023/01/12 04:48:39;;;;;;;;;;;;;;;13.21;99.10;99863.34;7359853;19;19930;-61
2023/01/12 04:51:06;;;;;;;;;;;;;;;13.20;98.79;99856.47;7357011;19;19927;-63
2023/01/12 04:53:33;;;;;;;;;;;;;;;13.21;98.80;99860.72;7355611;19;19927;-60
2023/01/12 04:56:04;;;;;;;;;;;;;;;13.21;98.60;99859.88;7358646;19;19971;-60
2023/01/12 04:58:31;;;;;;;;;;;;;;;13.20;98.62;99856.47;7359787;19;19923;-59
2023/01/12 05:01:06;;;;;;;;;;;;;;;13.22;98.92;99851.78;7364493;19;19923;-60
2023/01/12 05:03:33;;;;;;;;;;;;;;;13.27;99.26;99857.28;7363324;19;19922;-59
2023/01/12 05:06:00;;;;;;;;;;;;;;;13.29;99.03;99862.41;7365710;19;19926;-61
2023/01/12 05:11:04;;;;;;;;;;;;;;;13.26;98.02;99862.75;7365054;19;20735;-60
2023/01/12 05:13:30;;;;;;;;;;;;;;;13.25;98.08;99856.69;7365920;19;19931;-59
2023/01/12 05:16:06;;;;;;;;;;;;;;;13.25;98.22;99864.63;7365435;19;19922;-58
2023/01/12 05:18:32;;;;;;;;;;;;;;;13.23;98.47;99852.59;7365566;19;20285;-57
2023/01/12 05:20:59;;;;;;;;;;;;;;;13.23;98.73;99856.06;7366648;19;19922;-60
2023/01/12 05:23:26;;;;;;;;;;;;;;;13.23;98.89;99865.81;7358245;19;19934;-60
2023/01/12 05:25:56;;;;;;;;;;;;;;;13.20;98.47;99869.66;7362590;19;19918;-58
2023/01/12 05:28:23;;;;;;;;;;;;;;;13.24;98.58;99862.97;7364068;19;19942;-59
2023/01/12 05:30:50;;;;;;;;;;;;;;;13.21;98.42;99854.59;7364553;19;21950;-59
2023/01/12 05:33:18;;;;;;;;;;;;;;;13.21;98.64;99858.06;7366221;19;19931;-60
2023/01/12 05:35:45;;;;;;;;;;;;;;;13.21;98.56;99855.44;7364107;19;20018;-59
2023/01/12 05:38:12;;;;;;;;;;;;;;;13.20;99.01;99861.75;7360095;19;20263;-58
2023/01/12 05:40:38;;;;;;;;;;;;;;;13.21;99.15;99871.28;7365005;19;20126;-59
2023/01/12 05:45:41;;;;;;;;;;;;;;;13.23;99.34;99868.44;7365491;19;19926;-60
2023/01/12 05:48:08;;;;;;;;;;;;;;;13.22;99.05;99858.88;7364726;19;19931;-61
2023/01/12 05:50:35;;;;;;;;;;;;;;;13.22;98.81;99862.34;7364488;19;20302;-57
2023/01/12 05:53:02;;;;;;;;;;;;;;;13.24;99.62;99859.53;7362793;19;19931;-58
2023/01/12 05:55:29;;;;;;;;;;;;;;;13.24;99.18;99856.88;7364357;19;19923;-58
2023/01/12 05:57:57;;;;;;;;;;;;;;;13.24;99.28;99848.94;7361299;19;19926;-60
2023/01/12 06:00:24;;;;;;;;;;;;;;;13.25;99.10;99864.63;7363651;19;20744;-60
2023/01/12 06:02:51;;;;;;;;;;;;;;;13.24;98.97;99857.69;7363342;19;20855;-60
2023/01/12 06:05:18;;;;;;;;;;;;;;;13.25;98.67;99855.88;7364208;19;19919;-58
2023/01/12 06:07:44;;;;;;;;;;;;;;;13.26;98.66;99855.66;7361073;19;19919;-59
2023/01/12 06:10:11;;;;;;;;;;;;;;;13.27;98.87;99859.94;7360980;19;19955;-59
2023/01/12 06:15:14;;;;;;;;;;;;;;;13.32;98.86;99864.63;7363893;19;20551;-59
2023/01/12 06:17:41;;;;;;;;;;;;;;;13.34;98.76;99870.56;7362824;19;19938;-61
2023/01/12 06:20:09;;;;;;;;;;;;;;;13.37;98.60;99866.69;7361601;19;20495;-62
2023/01/12 06:22:36;;;;;;;;;;;;;;;13.36;98.07;99867.72;7360607;19;20263;-58
2023/01/12 06:25:03;;;;;;;;;;;;;;;13.40;98.33;99875.06;7361647;19;20596;-60
2023/01/12 06:27:30;;;;;;;;;;;;;;;13.42;98.30;99875.66;7363847;19;19930;-60
2023/01/12 06:29:57;;;;;;;;;;;;;;;13.42;98.07;99872.22;7363700;19;20379;-58
2023/01/12 06:32:24;;;;;;;;;;;;;;;13.42;97.72;99880.97;7360689;19;19914;-60
2023/01/12 06:34:51;;;;;;;;;;;;;;;13.46;97.99;99879.53;7363068;19;19926;-58
2023/01/12 06:37:17;;;;;;;;;;;;;;;13.48;97.51;99887.28;7360901;19;20882;-58
2023/01/12 06:39:44;;;;;;;;;;;;;;;13.49;97.02;99879.19;7359739;19;20314;-58
2023/01/12 06:44:47;;;;;;;;;;;;;;;13.53;96.68;99885.69;7359389;19;19919;-58
2023/01/12 06:47:14;;;;;;;;;;;;;;;13.55;97.01;99882.88;7363755;19;19998;-61
2023/01/12 06:49:41;;;;;;;;;;;;;;;13.55;96.36;99888.16;7361764;19;19919;-58
2023/01/12 06:52:08;;;;;;;;;;;;;;;13.57;95.93;99891.41;7361370;19;19929;-59
2023/01/12 06:54:34;;;;;;;;;;;;;;;13.57;95.50;99889.56;7360786;19;19937;-57
2023/01/12 06:57:01;;;;;;;;;;;;;;;13.54;95.57;99895.28;7363248;19;19936;-58
2023/01/12 06:59:28;;;;;;;;;;;;;;;13.56;95.68;99900.38;7361680;19;20035;-59
2023/01/12 07:01:55;;;;;;;;;;;;;;;13.58;96.07;99904.44;7360913;19;19923;-61
2023/01/12 07:04:22;;;;;;;;;;;;;;;13.63;96.19;99903.84;7358635;19;19923;-63
2023/01/12 07:06:52;;;;;;;;;;;;;;;13.63;95.43;99896.72;7359813;19;19923;-60
2023/01/12 07:09:19;;;;;;;;;;;;;;;13.64;95.46;99900.19;7357461;19;19919;-59
2023/01/12 07:11:45;;;;;;;;;;;;;;;13.66;95.45;99908.75;7363632;19;19926;-60
2023/01/12 07:14:12;;;;;;;;;;;;;;;13.69;95.58;99908.34;7357051;19;19911;-58
2023/01/12 07:16:39;;;;;;;;;;;;;;;13.70;95.13;99905.53;7361938;19;20024;-61
2023/01/12 07:19:06;;;;;;;;;;;;;;;13.71;94.96;99922.22;7359754;19;19918;-59
2023/01/12 07:21:32;;;;;;;;;;;;;;;13.69;94.44;99929.50;7359681;19;19938;-58
2023/01/12 07:23:59;;;;;;;;;;;;;;;13.69;94.77;99922.38;7355955;19;19953;-58
2023/01/12 07:26:26;;;;;;;;;;;;;;;13.68;94.36;99925.22;7361682;19;19925;-59
2023/01/12 07:28:54;;;;;;;;;;;;;;;13.70;94.38;99926.69;7355836;19;19923;-60
2023/01/12 07:31:21;;;;;;;;;;;;;;;13.71;94.19;99933.56;7362106;19;19929;-59
2023/01/12 07:33:51;;;;;;;;;;;;;;;13.73;94.50;99925.44;7359611;19;20435;-62
2023/01/12 07:36:18;;;;;;;;;;;;;;;13.74;94.51;99928.91;7357584;19;19935;-62
2023/01/12 07:38:45;;;;;;;;;;;;;;;13.74;93.96;99939.50;7355483;19;19934;-60
2023/01/12 07:43:48;;;;;;;;;;;;;;;13.77;94.35;99934.63;7358822;19;19919;-59
2023/01/12 07:46:15;;;;;;;;;;;;;;;13.77;94.30;99936.44;7361339;19;20368;-61
2023/01/12 07:48:42;;;;;;;;;;;;;;;13.77;94.00;99942.56;7361247;19;19930;-58
2023/01/12 07:51:09;;;;;;;;;;;;;;;13.79;94.51;99951.13;7359103;19;19974;-61
2023/01/12 07:53:35;;;;;;;;;;;;;;;13.78;93.79;99948.66;7358909;19;19930;-57
2023/01/12 07:56:02;;;;;;;;;;;;;;;13.79;93.77;99945.00;7359266;19;19990;-59
2023/01/12 07:58:30;;;;;;;;;;;;;;;13.80;94.38;99952.75;7359278;19;19919;-58
2023/01/12 08:00:57;;;;;;;;;;;;;;;13.81;94.12;99953.56;7359061;19;20002;-58
2023/01/12 08:03:24;;;;;;;;;;;;;;;13.82;94.24;99949.91;7360575;19;19942;-61
2023/01/12 08:05:52;;;;;;;;;;;;;;;13.83;94.28;99959.47;7355876;19;19919;-59
2023/01/12 08:08:19;;;;;;;;;;;;;;;13.86;94.54;99957.28;7353076;19;20249;-59
2023/01/12 08:10:48;;;;;;;;;;;;;;;13.88;94.44;99951.75;7356484;19;19975;-60
2023/01/12 08:13:17;;;;;;;;;;;;;;;13.89;94.53;99961.34;7360766;19;19919;-61
2023/01/12 08:15:48;;;;;;;;;;;;;;;13.87;93.91;99956.22;7358232;19;19915;-59
2023/01/12 08:18:19;;;;;;;;;;;;;;;13.85;93.80;99957.47;7358607;19;19922;-59
2023/01/12 08:20:48;;;;;;;;;;;;;;;13.86;94.41;99953.81;7358343;19;19919;-59
2023/01/12 08:23:19;;;;;;;;;;;;;;;13.87;93.96;99950.94;7356414;19;20076;-59
2023/01/12 08:25:53;;;;;;;;;;;;;;;13.88;94.21;99949.13;7356770;19;19952;-60
2023/01/12 08:28:23;;;;;;;;;;;;;;;13.87;93.71;99950.94;7357419;19;20393;-60
2023/01/12 08:30:51;;;;;;;;;;;;;;;13.89;93.82;99943.66;7359424;19;19961;-61
2023/01/12 08:33:18;;;;;;;;;;;;;;;13.92;94.06;99958.28;7361634;19;19922;-61
2023/01/12 08:35:46;;;;;;;;;;;;;;;13.94;94.13;99948.34;7365739;19;20038;-61
2023/01/12 08:38:13;;;;;;;;;;;;;;;13.94;94.11;99953.63;7360412;19;19927;-59
2023/01/12 08:44:00;;;;;;;;;;;;;;;13.95;93.68;99948.16;7364637;19;20406;-59
2023/01/12 08:46:06;;;;;;;;;;;;;;;13.97;94.22;99951.41;7364442;19;19922;-57
2023/01/12 08:48:34;;;;;;;;;;;;;;;13.98;93.48;99954.88;7366583;19;19923;-60
2023/01/12 08:51:03;;;;;;;;;;;;;;;14.00;93.19;99952.84;7365846;19;20364;-56
2023/01/12 08:53:30;;;;;;;;;;;;;;;14.00;92.96;99956.31;7362005;19;19926;-58
2023/01/12 08:55:57;;;;;;;;;;;;;;;14.00;93.01;99956.31;7366329;19;19937;-59
2023/01/12 08:58:24;;;;;;;;;;;;;;;14.04;93.59;99956.72;7366397;19;19933;-59
2023/01/12 09:00:52;;;;;;;;;;;;;;;14.01;93.41;99939.44;7365786;19;20430;-57
2023/01/12 09:03:19;;;;;;;;;;;;;;;14.04;93.05;99936.38;7362398;19;19926;-60
2023/01/12 09:05:47;;;;;;;;;;;;;;;14.04;93.17;99936.38;7361505;19;19926;-60
2023/01/12 09:08:14;;;;;;;;;;;;;;;14.04;92.93;99939.03;7364540;19;20409;-57
2023/01/12 09:10:41;;;;;;;;;;;;;;;14.06;93.14;99949.44;7363215;19;20079;-58
2023/01/12 09:13:14;;;;;;;;;;;;;;;14.07;93.43;99948.38;7364176;19;19919;-57
2023/01/12 09:15:41;;;;;;;;;;;;;;;14.07;93.11;99949.22;7366224;19;19957;-61
2023/01/12 09:18:18;;;;;;;;;;;;;;;14.04;92.66;99954.91;7365107;19;19921;-60
2023/01/12 09:20:45;;;;;;;;;;;;;;;14.05;93.43;99945.13;7365824;19;19949;-59
2023/01/12 09:23:12;;;;;;;;;;;;;;;14.05;93.32;99951.25;7361948;19;19978;-59
2023/01/12 09:25:39;;;;;;;;;;;;;;;14.06;93.62;99955.53;7362576;19;20319;-58
2023/01/12 09:28:12;;;;;;;;;;;;;;;14.07;93.45;99956.31;7364386;19;21797;-58
2023/01/12 09:30:41;;;;;;;;;;;;;;;14.07;93.52;99962.44;7362527;19;20473;-61
2023/01/12 09:33:08;;;;;;;;;;;;;;;14.08;93.48;99957.97;7363900;19;20259;-60
2023/01/12 09:35:35;;;;;;;;;;;;;;;14.06;93.80;99962.66;7364660;19;19927;-58
2023/01/12 09:38:03;;;;;;;;;;;;;;;14.06;93.95;99958.19;7363692;19;19927;-59
2023/01/12 09:40:34;;;;;;;;;;;;;;;14.04;94.01;99968.13;7360204;19;19961;-59
2023/01/12 09:48:17;;;;;;;;;;;;;;;14.04;93.82;99970.78;7363856;19;19967;-60
2023/01/12 09:50:49;;;;;;;;;;;;;;;14.06;93.79;99973.22;7364727;19;19918;-58
2023/01/12 09:53:17;;;;;;;;;;;;;;;14.08;93.73;99964.06;7359420;19;19927;-62
2023/01/12 09:55:49;;;;;;;;;;;;;;;14.10;93.97;99954.13;7361476;19;19923;-63
2023/01/12 09:58:18;;;;;;;;;;;;;;;14.09;93.33;99964.91;7361771;19;19919;-56
2023/01/12 10:00:50;;;;;;;;;;;;;;;14.11;93.27;99958.41;7361577;19;19952;-59
2023/01/12 10:03:21;;;;;;;;;;;;;;;14.14;93.08;99950.06;7364053;19;20495;-54
2023/01/12 10:05:51;;;;;;;;;;;;;;;14.17;92.89;99954.13;7362364;19;20590;-59
2023/01/12 10:08:19;;;;;;;;;;;;;;;14.19;92.75;99962.69;7363689;19;19927;-55
2023/01/12 10:10:58;;;;;;;;;;;;;;;14.21;92.40;99954.56;7361991;19;20154;-59
2023/01/12 10:13:32;;;;;;;;;;;;;;;14.22;92.23;99964.94;7360916;19;19986;-62
2023/01/12 10:16:07;;;;;;;;;;;;;;;14.26;92.55;99954.78;7362136;19;19918;-59
2023/01/12 10:18:40;;;;;;;;;;;;;;;14.30;91.70;99959.50;7360993;19;20015;-59
2023/01/12 10:21:09;;;;;;;;;;;;;;;14.32;91.51;99954.81;7363069;19;19927;-58
2023/01/12 10:23:36;;;;;;;;;;;;;;;14.32;91.62;99949.53;7360049;19;19955;-58
2023/01/12 10:26:14;;;;;;;;;;;;;;;14.34;91.75;99954.59;7364436;19;19922;-58
2023/01/12 10:28:43;;;;;;;;;;;;;;;14.34;91.45;99946.66;7360733;19;19930;-58
2023/01/12 10:31:14;;;;;;;;;;;;;;;14.37;91.55;99948.97;7361830;19;19918;-59
2023/01/12 10:33:59;;;;;;;;;;;;;;;14.37;91.03;99946.31;7361089;19;20614;-59
2023/01/12 10:36:28;;;;;;;;;;;;;;;14.39;91.35;99934.50;7362182;19;19915;-57
2023/01/12 10:38:59;;;;;;;;;;;;;;;14.39;91.01;99938.97;7357838;19;20464;-60
2023/01/12 10:41:27;;;;;;;;;;;;;;;14.39;90.93;99937.16;7362728;19;19952;-59
2023/01/12 10:43:55;;;;;;;;;;;;;;;14.42;91.18;99930.66;7358257;19;19915;-60
2023/01/12 10:46:25;;;;;;;;;;;;;;;14.41;91.10;99934.31;7363001;19;19933;-62
2023/01/12 10:48:54;;;;;;;;;;;;;;;14.48;91.73;99933.28;7361925;19;19926;-59
2023/01/12 10:51:30;;;;;;;;;;;;;;;14.49;91.11;99927.00;7363948;19;19915;-59
2023/01/12 10:54:06;;;;;;;;;;;;;;;14.51;90.68;99927.63;7359087;19;19922;-58
2023/01/12 10:56:35;;;;;;;;;;;;;;;14.55;90.97;99928.03;7361811;19;19942;-60
2023/01/12 10:59:05;;;;;;;;;;;;;;;14.54;90.58;99916.63;7359440;19;19926;-59
2023/01/12 11:01:42;;;;;;;;;;;;;;;14.54;90.13;99924.56;7361555;19;20627;-60
2023/01/12 11:04:14;;;;;;;;;;;;;;;14.52;90.12;99917.84;7360419;19;19919;-57
2023/01/12 11:06:41;;;;;;;;;;;;;;;14.50;90.54;99922.50;7361045;19;20336;-63
2023/01/12 11:09:18;;;;;;;;;;;;;;;14.47;90.61;99915.00;7357618;19;19926;-60
2023/01/12 11:11:45;;;;;;;;;;;;;;;14.45;91.00;99912.53;7363508;19;20303;-58
2023/01/12 11:14:19;;;;;;;;;;;;;;;14.48;91.03;99914.75;7360477;19;19922;-58
2023/01/12 11:16:49;;;;;;;;;;;;;;;14.50;90.77;99898.69;7362779;19;19918;-59
2023/01/12 11:19:35;;;;;;;;;;;;;;;14.52;91.35;99899.31;7363424;19;21488;-59
2023/01/12 11:22:16;;;;;;;;;;;;;;;14.53;91.55;99895.63;7359606;19;19923;-60
2023/01/12 11:24:48;;;;;;;;;;;;;;;14.50;91.57;99886.28;7360299;19;20581;-58
2023/01/12 11:27:20;;;;;;;;;;;;;;;14.50;92.06;99888.91;7359881;19;19922;-60
2023/01/12 11:29:57;;;;;;;;;;;;;;;14.51;94.02;99879.97;7357726;19;21329;-57
2023/01/12 11:32:24;;;;;;;;;;;;;;;14.51;94.20;99876.50;7361888;19;19915;-57
2023/01/12 11:34:55;;;;;;;;;;;;;;;14.45;93.60;99872.00;7359819;19;19923;-58
2023/01/12 11:37:23;;;;;;;;;;;;;;;14.42;93.94;99877.72;7329116;19;20483;-60
2023/01/12 11:39:52;;;;;;;;;;;;;;;14.39;93.78;99867.50;7353229;19;19930;-59
2023/01/12 11:45:04;;;;;;;;;;;;;;;14.31;94.09;99859.75;7347646;19;19959;-59
2023/01/12 11:47:35;;;;;;;;;;;;;;;14.29;94.39;99848.53;7355800;19;19930;-59
2023/01/12 11:50:05;;;;;;;;;;;;;;;14.27;94.59;99850.59;7358024;19;19927;-59
2023/01/12 11:52:32;;;;;;;;;;;;;;;14.22;94.60;99847.72;7357737;19;19930;-56
2023/01/12 11:54:59;;;;;;;;;;;;;;;14.21;94.69;99854.03;7355562;19;19929;-59
2023/01/12 11:57:30;;;;;;;;;;;;;;;14.17;94.90;99835.06;7356031;19;19923;-58
2023/01/12 11:59:58;;;;;;;;;;;;;;;14.17;95.05;99839.56;7358316;19;19922;-56
2023/01/12 12:02:28;;;;;;;;;;;;;;;14.18;95.64;99834.06;7358409;19;19927;-58
2023/01/12 12:04:59;;;;;;;;;;;;;;;14.22;95.87;99837.94;7357275;19;19925;-56
2023/01/12 12:07:29;;;;;;;;;;;;;;;14.19;95.29;99834.88;7355342;19;19959;-58
2023/01/12 12:10:03;;;;;;;;;;;;;;;14.15;95.03;99823.88;7358159;19;19935;-59
2023/01/12 12:12:31;;;;;;;;;;;;;;;14.13;95.13;99820.63;7358024;19;20447;-59
2023/01/12 12:15:01;;;;;;;;;;;;;;;14.09;95.04;99824.69;7357507;19;20223;-59
2023/01/12 12:17:31;;;;;;;;;;;;;;;14.11;95.56;99817.38;7335125;19;19914;-59
2023/01/12 12:19:59;;;;;;;;;;;;;;;14.14;95.44;99816.97;7357423;19;19994;-58
2023/01/12 12:22:29;;;;;;;;;;;;;;;14.16;95.18;99809.66;7356299;19;19922;-57
2023/01/12 12:24:57;;;;;;;;;;;;;;;14.16;94.97;99798.25;7355417;19;19964;-63
2023/01/12 12:27:26;;;;;;;;;;;;;;;14.15;94.59;99797.44;7357178;19;20409;-63
2023/01/12 12:29:54;;;;;;;;;;;;;;;14.18;94.87;99791.72;7356616;19;19934;-58
2023/01/12 12:32:24;;;;;;;;;;;;;;;14.20;94.79;99781.78;7358326;19;19939;-54
2023/01/12 12:34:54;;;;;;;;;;;;;;;14.25;94.68;99789.09;7359480;19;19927;-56
2023/01/12 12:37:24;;;;;;;;;;;;;;;14.29;94.23;99793.78;7357247;19;19926;-59
2023/01/12 12:39:54;;;;;;;;;;;;;;;14.26;93.75;99788.91;7357341;19;20554;-61
2023/01/12 12:47:31;;;;;;;;;;;;;;;14.36;94.30;99773.47;7358652;19;19929;-58
2023/01/12 12:49:59;;;;;;;;;;;;;;;14.36;93.74;99769.97;7356131;19;19956;-59
2023/01/12 12:52:32;;;;;;;;;;;;;;;14.37;93.22;99772.47;7354394;19;19934;-58
2023/01/12 12:55:00;;;;;;;;;;;;;;;14.40;93.24;99771.22;7356874;19;19923;-59
2023/01/12 12:57:27;;;;;;;;;;;;;;;14.40;92.94;99760.63;7358435;19;19938;-57
2023/01/12 12:59:56;;;;;;;;;;;;;;;14.41;93.37;99784.25;7358628;19;20447;-54
2023/01/12 13:02:26;;;;;;;;;;;;;;;14.41;93.33;99768.38;7357126;19;19950;-59
2023/01/12 13:04:54;;;;;;;;;;;;;;;14.46;93.27;99765.13;7356763;19;19975;-60
2023/01/12 13:07:21;;;;;;;;;;;;;;;14.48;92.96;99755.94;7355727;19;20243;-57
2023/01/12 13:09:49;;;;;;;;;;;;;;;14.50;93.02;99758.38;7357377;19;20002;-57
2023/01/12 13:12:17;;;;;;;;;;;;;;;14.50;92.64;99745.97;7359585;19;19937;-56
2023/01/12 13:15:04;;;;;;;;;;;;;;;14.52;92.75;99748.44;7359272;19;19943;-60
2023/01/12 13:17:31;;;;;;;;;;;;;;;14.54;92.65;99738.44;7355909;19;19933;-60
2023/01/12 13:19:59;;;;;;;;;;;;;;;14.54;92.21;99743.72;7364031;19;19933;-59
2023/01/12 13:22:42;;;;;;;;;;;;;;;14.54;92.25;99736.59;7364363;19;19957;-60
2023/01/12 13:25:09;;;;;;;;;;;;;;;14.55;92.27;99742.72;7361383;19;19974;-60
2023/01/12 13:27:39;;;;;;;;;;;;;;;14.54;92.36;99731.31;7338548;19;19922;-56
2023/01/12 13:33:22;;;;;;;;;;;;;;;14.55;92.58;99725.00;7295738;19;19930;-58
2023/01/12 13:35:52;;;;;;;;;;;;;;;14.52;92.75;99717.47;7358667;19;21291;-59
2023/01/12 13:38:24;;;;;;;;;;;;;;;14.48;92.77;99705.66;7354211;19;19969;-61
2023/01/12 13:40:51;;;;;;;;;;;;;;;14.50;93.11;99710.75;7358055;19;19911;-61
2023/01/12 13:43:25;;;;;;;;;;;;;;;14.53;93.67;99718.25;7360555;19;19926;-60
2023/01/12 13:45:55;;;;;;;;;;;;;;;14.57;93.56;99722.16;7357932;19;19922;-57
2023/01/12 13:48:23;;;;;;;;;;;;;;;14.55;92.32;99718.88;7362976;19;20835;-59